Balasov, Russia
Current Conditions -  °F | °C
As of 1:30 PM on Sunday 23 Nov 2014 (Local Time) from UWSS Reporting Station
Clear Clear  
Wind Chill: 22°   Ceiling: Unl
Heat Index: 32°   Visibility: 6mi
Dew Point: 21°   Wind: 13mph
Humidity: 64%   Direction: 320°NW
Pressure: 30.21"   Gusts: 20mph
Location:  51.55°N, 43.15°E
Report Text: UWSS 231030Z 32006G09MPS CAVOK M00/M06 Q1023 300///60 NOSIG RMKQFE754
Loading
Personal Weather Stations






























Interactive Weather Map New forecast layout! Learn more

10-Day Weather Forecast

Advertisements
Track Severe Weather on mobile